Time;durP1;ratioP1;P1;durP2;ratioP2;P2;SDS_P1;SDS_P2;PMS_P1;PMS_P2;Temp;Humidity;BMP_temperature;BMP_pressure;BME280_temperature;BME280_humidity;BME280_pressure;Samples;Min_cycle;Max_cycle;Signal;HPM_P1;HPM_P2
2021/10/18 00:00:47;;;;;;;4.60;4.20;;;;;;;;;;5074785;28;20070;-36
2021/10/18 00:03:12;;;;;;;4.32;3.92;;;;;;;;;;5074700;28;20040;-36
2021/10/18 00:05:38;;;;;;;4.57;4.07;;;;;;;;;;5074745;28;20017;-36
2021/10/18 00:08:03;;;;;;;4.33;3.93;;;;;;;;;;5074921;28;20440;-36
2021/10/18 00:10:28;;;;;;;5.10;4.20;;;;;;;;;;5075265;28;20645;-36
2021/10/18 00:12:55;;;;;;;5.03;4.27;;;;;;;;;;5074364;28;20029;-36
2021/10/18 00:15:20;;;;;;;4.30;3.70;;;;;;;;;;5074586;28;20398;-37
2021/10/18 00:17:46;;;;;;;4.57;4.10;;;;;;;;;;5074144;28;20036;-37
2021/10/18 00:20:12;;;;;;;4.43;4.00;;;;;;;;;;5056495;28;20032;-38
2021/10/18 00:22:38;;;;;;;4.47;4.07;;;;;;;;;;5056204;28;20035;-37
2021/10/18 00:25:03;;;;;;;5.17;4.17;;;;;;;;;;5074474;28;20107;-35
2021/10/18 00:27:29;;;;;;;4.60;3.83;;;;;;;;;;5056299;28;20026;-37
2021/10/18 00:29:54;;;;;;;4.43;3.90;;;;;;;;;;5074104;28;20020;-37
2021/10/18 00:32:20;;;;;;;5.97;4.30;;;;;;;;;;5074024;28;20112;-38
2021/10/18 00:34:45;;;;;;;4.53;3.90;;;;;;;;;;5074091;28;20028;-37
2021/10/18 00:37:10;;;;;;;4.30;3.90;;;;;;;;;;5074200;28;20453;-37
2021/10/18 00:39:36;;;;;;;4.30;3.90;;;;;;;;;;5074176;28;20028;-37
2021/10/18 00:42:01;;;;;;;4.25;3.95;;;;;;;;;;5074077;28;20021;-37
2021/10/18 00:44:27;;;;;;;4.40;4.00;;;;;;;;;;5073580;28;20024;-37
2021/10/18 00:46:52;;;;;;;5.13;4.33;;;;;;;;;;5073882;28;20375;-37
2021/10/18 00:49:18;;;;;;;4.33;3.93;;;;;;;;;;5073888;28;20029;-36
2021/10/18 00:51:44;;;;;;;3.90;3.47;;;;;;;;;;5073208;28;20060;-37
2021/10/18 00:54:09;;;;;;;4.20;3.80;;;;;;;;;;5073775;28;20111;-37
2021/10/18 00:56:34;;;;;;;4.67;4.20;;;;;;;;;;5056297;28;20028;-37
2021/10/18 00:59:01;;;;;;;5.30;3.93;;;;;;;;;;5073794;28;20371;-37
2021/10/18 01:01:26;;;;;;;4.65;4.25;;;;;;;;;;5059897;28;20089;-37
2021/10/18 01:03:51;;;;;;;4.67;4.20;;;;;;;;;;5077892;28;20059;-36
2021/10/18 01:06:17;;;;;;;4.67;4.03;;;;;;;;;;5075427;28;20427;-37
2021/10/18 01:08:42;;;;;;;4.50;3.93;;;;;;;;;;5074249;28;20052;-37
2021/10/18 01:11:08;;;;;;;4.80;4.40;;;;;;;;;;5074666;28;20029;-37
2021/10/18 01:13:34;;;;;;;5.10;4.60;;;;;;;;;;5077150;28;20036;-37
2021/10/18 01:16:02;;;;;;;4.85;4.35;;;;;;;;;;5060966;28;20562;-37
2021/10/18 01:18:28;;;;;;;5.10;4.60;;;;;;;;;;5074583;28;20052;-37
2021/10/18 01:20:53;;;;;;;5.53;4.07;;;;;;;;;;5060350;28;20025;-37
2021/10/18 01:23:19;;;;;;;4.70;4.20;;;;;;;;;;5081170;28;20391;-37
2021/10/18 01:25:44;;;;;;;4.40;4.00;;;;;;;;;;5080388;28;20029;-37
2021/10/18 01:28:10;;;;;;;4.67;3.97;;;;;;;;;;5063024;28;20067;-37
2021/10/18 01:30:35;;;;;;;5.17;4.07;;;;;;;;;;5074457;28;20047;-37
2021/10/18 01:33:00;;;;;;;4.57;3.70;;;;;;;;;;5074583;28;20039;-37
2021/10/18 01:35:26;;;;;;;4.47;4.07;;;;;;;;;;5074217;28;20016;-37
2021/10/18 01:37:52;;;;;;;5.40;4.90;;;;;;;;;;5073789;28;20028;-37
2021/10/18 01:40:19;;;;;;;4.30;3.90;;;;;;;;;;5073673;28;20028;-37
2021/10/18 01:42:44;;;;;;;;;;;;;;;;;;5073823;28;20028;-37
2021/10/18 01:45:12;;;;;;;4.77;4.30;;;;;;;;;;5073207;28;20397;-37
2021/10/18 01:47:37;;;;;;;4.38;3.97;;;;;;;;;;5054625;28;20402;-37
2021/10/18 01:50:06;;;;;;;4.70;4.23;;;;;;;;;;5073470;28;20028;-37
2021/10/18 01:52:32;;;;;;;4.60;4.10;;;;;;;;;;5073254;28;20028;-37
2021/10/18 01:54:57;;;;;;;4.93;4.43;;;;;;;;;;5072581;28;20025;-38
2021/10/18 01:57:22;;;;;;;5.07;4.57;;;;;;;;;;5072623;28;20040;-35
2021/10/18 01:59:48;;;;;;;4.37;3.97;;;;;;;;;;5054220;28;20031;-37
2021/10/18 02:02:13;;;;;;;4.77;4.10;;;;;;;;;;5071791;28;20089;-37
2021/10/18 02:04:38;;;;;;;4.70;4.23;;;;;;;;;;5072164;28;20081;-37
2021/10/18 02:07:04;;;;;;;5.90;4.57;;;;;;;;;;5072342;28;20490;-37
2021/10/18 02:09:29;;;;;;;4.57;3.90;;;;;;;;;;5072059;28;20097;-37
2021/10/18 02:11:54;;;;;;;4.80;4.30;;;;;;;;;;5072577;28;20024;-37
2021/10/18 02:14:20;;;;;;;4.87;4.40;;;;;;;;;;5054057;28;20035;-38
2021/10/18 02:16:45;;;;;;;4.97;4.43;;;;;;;;;;5072360;28;20071;-36
2021/10/18 02:19:10;;;;;;;4.30;3.90;;;;;;;;;;5071599;28;20028;-37
2021/10/18 02:21:36;;;;;;;5.27;4.33;;;;;;;;;;5072214;28;20029;-36
2021/10/18 02:24:02;;;;;;;4.90;4.30;;;;;;;;;;5072197;28;20028;-37
2021/10/18 02:26:27;;;;;;;5.30;4.50;;;;;;;;;;5072102;28;20710;-37
2021/10/18 02:28:52;;;;;;;4.60;4.20;;;;;;;;;;5071662;28;20036;-37
2021/10/18 02:31:18;;;;;;;5.07;4.53;;;;;;;;;;5072203;28;20129;-37
2021/10/18 02:33:44;;;;;;;4.88;4.47;;;;;;;;;;5061955;28;20395;-37
2021/10/18 02:36:09;;;;;;;5.47;4.50;;;;;;;;;;5033662;28;20078;-37
2021/10/18 02:38:34;;;;;;;4.47;4.07;;;;;;;;;;5050926;28;20399;-37
2021/10/18 02:41:00;;;;;;;4.60;4.20;;;;;;;;;;5051417;28;20036;-37
2021/10/18 02:43:25;;;;;;;5.87;4.20;;;;;;;;;;5052062;28;20666;-37
2021/10/18 02:45:50;;;;;;;4.57;4.17;;;;;;;;;;5060929;28;20143;-37
2021/10/18 02:48:16;;;;;;;4.73;4.33;;;;;;;;;;5071706;28;20028;-37
2021/10/18 02:50:41;;;;;;;5.87;4.20;;;;;;;;;;5052481;28;20510;-37
2021/10/18 02:53:07;;;;;;;4.53;3.90;;;;;;;;;;5051813;28;20399;-37
2021/10/18 02:55:32;;;;;;;4.53;4.13;;;;;;;;;;5051489;28;20078;-37
2021/10/18 02:57:57;;;;;;;4.67;4.20;;;;;;;;;;5051775;28;20037;-37
2021/10/18 03:00:23;;;;;;;5.15;4.65;;;;;;;;;;5051648;28;20025;-36
2021/10/18 03:02:48;;;;;;;4.75;4.18;;;;;;;;;;5051633;28;20098;-37
2021/10/18 03:05:13;;;;;;;4.57;4.17;;;;;;;;;;5051358;28;20021;-36
2021/10/18 03:07:39;;;;;;;5.83;4.60;;;;;;;;;;5051514;28;20498;-36
2021/10/18 03:10:04;;;;;;;5.00;4.10;;;;;;;;;;5051432;28;20127;-36
2021/10/18 03:12:30;;;;;;;4.53;4.13;;;;;;;;;;5061943;28;20063;-37
2021/10/18 03:14:55;;;;;;;5.23;4.57;;;;;;;;;;5070621;28;20033;-37
2021/10/18 03:17:21;;;;;;;4.87;4.40;;;;;;;;;;5071340;28;20028;-37
2021/10/18 03:19:46;;;;;;;4.97;4.47;;;;;;;;;;5070679;28;20031;-36
2021/10/18 03:22:11;;;;;;;5.63;4.60;;;;;;;;;;5071308;28;20032;-37
2021/10/18 03:24:37;;;;;;;4.40;4.00;;;;;;;;;;5071230;28;20060;-37
2021/10/18 03:27:02;;;;;;;4.80;4.00;;;;;;;;;;5071243;28;20032;-36
2021/10/18 03:29:27;;;;;;;4.50;4.00;;;;;;;;;;5053029;28;20032;-36
2021/10/18 03:31:53;;;;;;;6.85;4.35;;;;;;;;;;5070819;28;20024;-36
2021/10/18 03:34:18;;;;;;;4.85;4.45;;;;;;;;;;5071155;28;20603;-36
2021/10/18 03:36:43;;;;;;;5.22;4.40;;;;;;;;;;5071147;28;20492;-37
2021/10/18 03:39:09;;;;;;;5.13;4.50;;;;;;;;;;5070886;28;20043;-37
2021/10/18 03:41:34;;;;;;;4.80;4.40;;;;;;;;;;5071002;28;20025;-37
2021/10/18 03:44:01;;;;;;;4.97;4.47;;;;;;;;;;5071400;28;20100;-37
2021/10/18 03:46:26;;;;;;;4.78;4.03;;;;;;;;;;5070599;28;20044;-37
2021/10/18 03:48:51;;;;;;;6.10;4.33;;;;;;;;;;5071008;28;20402;-36
2021/10/18 03:51:17;;;;;;;5.70;4.60;;;;;;;;;;5071057;28;20024;-36
2021/10/18 03:53:42;;;;;;;5.32;4.63;;;;;;;;;;5070765;28;20029;-37
2021/10/18 03:56:07;;;;;;;4.32;3.92;;;;;;;;;;5070912;28;20050;-37
2021/10/18 03:58:33;;;;;;;4.57;4.07;;;;;;;;;;5070859;28;20061;-37
2021/10/18 04:00:58;;;;;;;4.63;4.20;;;;;;;;;;5070764;28;20040;-37
2021/10/18 04:03:23;;;;;;;4.95;4.45;;;;;;;;;;5070793;28;20078;-37
2021/10/18 04:05:49;;;;;;;4.93;3.92;;;;;;;;;;5070428;28;20039;-37
2021/10/18 04:08:14;;;;;;;5.23;4.73;;;;;;;;;;5052934;28;20392;-37
2021/10/18 04:10:40;;;;;;;4.93;4.40;;;;;;;;;;5071184;28;20028;-38
2021/10/18 04:13:05;;;;;;;4.47;4.07;;;;;;;;;;5070683;28;20081;-36
2021/10/18 04:15:30;;;;;;;5.30;4.80;;;;;;;;;;5071393;28;20418;-36
2021/10/18 04:17:56;;;;;;;4.72;4.30;;;;;;;;;;5072246;28;20448;-36
2021/10/18 04:20:21;;;;;;;4.53;4.10;;;;;;;;;;5071643;28;20067;-37
2021/10/18 04:22:46;;;;;;;4.70;4.30;;;;;;;;;;5071711;28;20091;-37
2021/10/18 04:25:13;;;;;;;5.80;4.50;;;;;;;;;;5072300;28;20032;-37
2021/10/18 04:27:38;;;;;;;5.03;4.53;;;;;;;;;;5057532;28;20020;-37
2021/10/18 04:30:04;;;;;;;4.70;3.87;;;;;;;;;;5075581;28;20123;-35
2021/10/18 04:32:29;;;;;;;4.93;4.53;;;;;;;;;;5075247;28;21039;-37
2021/10/18 04:34:54;;;;;;;6.70;4.30;;;;;;;;;;5075436;28;20046;-37
2021/10/18 04:37:20;;;;;;;4.47;4.07;;;;;;;;;;5075031;28;20063;-37
2021/10/18 04:39:45;;;;;;;4.68;4.28;;;;;;;;;;5075237;28;20036;-36
2021/10/18 04:42:10;;;;;;;4.68;4.28;;;;;;;;;;5055786;28;20041;-37
2021/10/18 04:44:37;;;;;;;4.63;4.23;;;;;;;;;;5054227;28;20029;-36
2021/10/18 04:47:02;;;;;;;4.40;4.00;;;;;;;;;;5068893;28;20036;-36
2021/10/18 04:49:28;;;;;;;4.60;4.20;;;;;;;;;;5074224;28;20083;-36
2021/10/18 04:51:53;;;;;;;4.33;3.93;;;;;;;;;;5073730;28;20499;-37
2021/10/18 04:54:18;;;;;;;5.00;4.50;;;;;;;;;;5073922;28;20099;-37
2021/10/18 04:56:44;;;;;;;6.50;4.47;;;;;;;;;;5073626;28;20044;-37
2021/10/18 04:59:09;;;;;;;5.20;4.37;;;;;;;;;;5073942;28;20475;-37
2021/10/18 05:01:34;;;;;;;4.40;4.00;;;;;;;;;;5073616;28;20126;-37
2021/10/18 05:04:00;;;;;;;4.53;4.10;;;;;;;;;;5074011;28;20028;-37
2021/10/18 05:06:25;;;;;;;4.90;4.40;;;;;;;;;;5073820;28;20139;-37
2021/10/18 05:08:51;;;;;;;5.00;4.60;;;;;;;;;;5073910;28;20036;-37
2021/10/18 05:11:16;;;;;;;4.90;4.18;;;;;;;;;;5073643;28;20047;-37
2021/10/18 05:13:42;;;;;;;6.27;4.57;;;;;;;;;;5073288;28;20390;-36
2021/10/18 05:16:07;;;;;;;4.90;4.40;;;;;;;;;;5073642;28;20016;-37
2021/10/18 05:18:32;;;;;;;4.35;3.95;;;;;;;;;;5073588;28;20391;-36
2021/10/18 05:20:58;;;;;;;4.60;4.20;;;;;;;;;;5073549;28;20024;-38
2021/10/18 05:23:23;;;;;;;5.93;4.60;;;;;;;;;;5073106;28;20131;-36
2021/10/18 05:25:49;;;;;;;4.43;4.03;;;;;;;;;;5073144;28;20031;-36
2021/10/18 05:28:14;;;;;;;4.97;4.43;;;;;;;;;;5073378;28;20028;-36
2021/10/18 05:30:39;;;;;;;4.30;4.00;;;;;;;;;;5055261;28;20134;-37
2021/10/18 05:33:06;;;;;;;4.93;4.40;;;;;;;;;;5073132;28;20055;-37
2021/10/18 05:35:31;;;;;;;4.90;4.35;;;;;;;;;;5073024;28;20028;-37
2021/10/18 05:37:57;;;;;;;4.90;4.40;;;;;;;;;;5054664;28;20186;-37
2021/10/18 05:40:23;;;;;;;8.37;5.03;;;;;;;;;;5073457;28;20486;-37
2021/10/18 05:42:48;;;;;;;4.70;4.30;;;;;;;;;;5073020;28;20029;-36
2021/10/18 05:45:14;;;;;;;4.75;4.25;;;;;;;;;;5108388;22;20815;-39
2021/10/18 05:47:55;;;;;;;5.27;4.77;;;;;;;;;;5095003;28;20039;-40
2021/10/18 05:50:21;;;;;;;5.15;4.40;;;;;;;;;;5113749;28;20118;-40
2021/10/18 05:52:46;;;;;;;5.20;4.10;;;;;;;;;;5113617;28;20067;-40
2021/10/18 05:55:12;;;;;;;4.60;4.13;;;;;;;;;;5106843;28;20504;-39
2021/10/18 05:57:56;;;;;;;4.73;3.90;;;;;;;;;;5092678;28;20024;-40
2021/10/18 06:00:22;;;;;;;6.03;4.47;;;;;;;;;;5093107;28;20031;-39
2021/10/18 06:02:48;;;;;;;4.70;4.13;;;;;;;;;;5074529;28;20028;-39
2021/10/18 06:05:13;;;;;;;6.33;4.50;;;;;;;;;;5085340;28;20402;-39
2021/10/18 06:07:39;;;;;;;4.03;3.60;;;;;;;;;;5095654;28;20082;-45
2021/10/18 06:10:05;;;;;;;4.63;4.20;;;;;;;;;;5092991;28;20078;-43
2021/10/18 06:12:30;;;;;;;5.37;4.83;;;;;;;;;;5074650;28;20020;-44
2021/10/18 06:14:56;;;;;;;4.70;4.17;;;;;;;;;;5092249;28;20329;-40
2021/10/18 06:17:21;;;;;;;4.53;4.13;;;;;;;;;;5092809;28;20386;-41
2021/10/18 06:19:46;;;;;;;4.37;3.97;;;;;;;;;;5092545;28;20024;-40
2021/10/18 06:22:12;;;;;;;4.90;3.97;;;;;;;;;;5091904;28;20059;-39
2021/10/18 06:24:37;;;;;;;4.60;4.20;;;;;;;;;;5092342;28;20026;-39
2021/10/18 06:27:02;;;;;;;4.63;4.23;;;;;;;;;;5090921;28;20052;-39
2021/10/18 06:29:29;;;;;;;5.60;4.30;;;;;;;;;;5072166;28;20025;-39
2021/10/18 06:31:54;;;;;;;8.07;4.70;;;;;;;;;;5072167;28;20127;-42
2021/10/18 06:34:20;;;;;;;5.68;4.32;;;;;;;;;;5074344;28;20125;-42
2021/10/18 06:36:45;;;;;;;4.43;4.03;;;;;;;;;;5091980;28;20020;-41
2021/10/18 06:39:10;;;;;;;4.80;4.10;;;;;;;;;;5073954;28;20034;-39
2021/10/18 06:41:36;;;;;;;4.35;3.85;;;;;;;;;;5092471;28;20024;-41
2021/10/18 06:44:01;;;;;;;4.80;4.40;;;;;;;;;;5092233;28;20027;-41
2021/10/18 06:46:26;;;;;;;5.23;3.83;;;;;;;;;;5091721;28;20078;-41
2021/10/18 06:48:52;;;;;;;4.43;3.90;;;;;;;;;;5091422;28;20418;-40
2021/10/18 06:51:17;;;;;;;4.87;4.00;;;;;;;;;;5092102;28;20413;-40
2021/10/18 06:53:42;;;;;;;4.05;3.65;;;;;;;;;;5091893;28;20034;-41
2021/10/18 06:56:08;;;;;;;4.90;4.45;;;;;;;;;;5091102;28;20568;-39
2021/10/18 06:58:33;;;;;;;5.13;4.53;;;;;;;;;;5091353;28;20106;-43
2021/10/18 07:01:00;;;;;;;4.90;4.50;;;;;;;;;;5091329;28;20406;-43
2021/10/18 07:03:25;;;;;;;4.28;3.88;;;;;;;;;;5091917;28;20413;-42
2021/10/18 07:05:50;;;;;;;4.33;3.93;;;;;;;;;;5073537;28;20115;-43
2021/10/18 07:08:16;;;;;;;5.10;4.53;;;;;;;;;;5091544;28;20367;-40
2021/10/18 07:10:42;;;;;;;4.20;3.80;;;;;;;;;;5091618;28;20024;-40
2021/10/18 07:13:09;;;;;;;4.78;4.03;;;;;;;;;;5091181;28;20047;-41
2021/10/18 07:15:35;;;;;;;5.95;4.22;;;;;;;;;;5091459;28;20061;-40
2021/10/18 07:18:00;;;;;;;6.63;4.27;;;;;;;;;;5091792;28;20028;-43
2021/10/18 07:20:25;;;;;;;4.47;3.97;;;;;;;;;;5091331;28;20066;-41
2021/10/18 07:22:55;;;;;;;5.00;4.50;;;;;;;;;;5092792;28;20089;-45
2021/10/18 07:25:21;;;;;;;4.30;3.90;;;;;;;;;;5080536;28;20078;-41
2021/10/18 07:27:46;;;;;;;4.97;4.47;;;;;;;;;;5077138;28;20025;-43
2021/10/18 07:30:12;;;;;;;7.10;4.47;;;;;;;;;;5089770;28;20028;-44
2021/10/18 07:32:40;;;;;;;4.30;3.90;;;;;;;;;;5091523;28;20070;-39
2021/10/18 07:35:06;;;;;;;5.07;4.28;;;;;;;;;;5091138;28;20043;-41
2021/10/18 07:37:32;;;;;;;5.27;4.67;;;;;;;;;;5091248;28;20035;-41
2021/10/18 07:39:57;;;;;;;6.13;4.30;;;;;;;;;;5090845;28;20268;-41
2021/10/18 07:42:22;;;;;;;6.13;4.50;;;;;;;;;;5091467;28;20077;-40
2021/10/18 07:44:48;;;;;;;8.23;4.93;;;;;;;;;;5091277;28;20099;-41
2021/10/18 07:47:13;;;;;;;10.35;5.13;;;;;;;;;;5091206;28;20563;-42
2021/10/18 07:49:42;;;;;;;12.60;5.65;;;;;;;;;;5088918;28;20469;-40
2021/10/18 07:52:12;;;;;;;12.02;4.63;;;;;;;;;;5083803;28;20019;-43
2021/10/18 07:54:40;;;;;;;12.70;5.50;;;;;;;;;;5080199;28;20080;-43
2021/10/18 07:57:06;;;;;;;9.80;5.40;;;;;;;;;;5081405;28;20023;-42
2021/10/18 07:59:32;;;;;;;10.83;5.70;;;;;;;;;;5085554;28;20030;-46
2021/10/18 08:01:58;;;;;;;10.07;5.77;;;;;;;;;;5083495;28;20107;-42
2021/10/18 08:04:23;;;;;;;8.80;5.00;;;;;;;;;;5084422;28;20063;-45
2021/10/18 08:06:48;;;;;;;11.05;5.55;;;;;;;;;;5086713;28;20028;-42
2021/10/18 08:09:14;;;;;;;9.03;5.00;;;;;;;;;;5074975;28;20542;-41
2021/10/18 08:11:39;;;;;;;10.75;5.45;;;;;;;;;;5092775;28;20485;-41
2021/10/18 08:14:05;;;;;;;9.18;5.18;;;;;;;;;;5092800;28;20432;-42
2021/10/18 08:16:30;;;;;;;12.80;5.53;;;;;;;;;;5074561;28;20032;-44
2021/10/18 08:18:56;;;;;;;10.52;5.32;;;;;;;;;;5094510;28;20055;-41
2021/10/18 08:21:22;;;;;;;7.23;4.10;;;;;;;;;;5094286;28;20024;-39
2021/10/18 08:23:47;;;;;;;8.32;5.53;;;;;;;;;;5094746;28;20024;-43
2021/10/18 08:26:13;;;;;;;9.97;5.47;;;;;;;;;;5095082;28;20486;-42
2021/10/18 08:28:38;;;;;;;6.10;4.67;;;;;;;;;;5094618;28;20031;-39
2021/10/18 08:31:04;;;;;;;6.60;5.13;;;;;;;;;;5094232;28;20050;-39
2021/10/18 08:33:29;;;;;;;7.70;5.27;;;;;;;;;;5095012;28;20119;-39
2021/10/18 08:35:54;;;;;;;9.02;4.72;;;;;;;;;;5094409;28;20020;-39
2021/10/18 08:41:09;;;;;;;8.73;5.35;;;;;;;;;;5097352;28;20035;-41
2021/10/18 08:46:06;;;;;;;7.95;5.60;;;;;;;;;;5077935;28;20111;-39
2021/10/18 08:48:32;;;;;;;9.13;5.25;;;;;;;;;;5076699;28;20434;-39
2021/10/18 08:50:57;;;;;;;10.93;5.53;;;;;;;;;;5082942;28;20162;-39
2021/10/18 08:53:23;;;;;;;8.33;5.10;;;;;;;;;;5094001;28;20129;-40
2021/10/18 08:55:48;;;;;;;6.00;5.20;;;;;;;;;;5075589;28;20367;-41
2021/10/18 08:58:13;;;;;;;7.27;4.80;;;;;;;;;;5085501;28;20024;-43
2021/10/18 09:00:51;;;;;;;7.65;4.80;;;;;;;;;;5075316;28;20028;-39
2021/10/18 09:03:16;;;;;;;8.20;5.78;;;;;;;;;;5092526;28;20103;-39
2021/10/18 09:05:42;;;;;;;6.67;5.40;;;;;;;;;;5086308;28;20103;-40
2021/10/18 09:08:07;;;;;;;7.67;5.13;;;;;;;;;;5066013;28;20032;-39
2021/10/18 09:10:32;;;;;;;12.90;5.67;;;;;;;;;;5082515;28;20081;-40
2021/10/18 09:13:11;;;;;;;13.90;6.67;;;;;;;;;;5092226;28;20081;-41
2021/10/18 09:15:36;;;;;;;16.75;7.90;;;;;;;;;;5092633;28;20036;-41
2021/10/18 09:18:02;;;;;;;20.10;8.20;;;;;;;;;;5083878;28;20684;-40
2021/10/18 09:20:28;;;;;;;19.47;7.93;;;;;;;;;;5071863;28;20126;-39
2021/10/18 09:23:14;;;;;;;16.98;7.30;;;;;;;;;;5092060;28;20039;-40
2021/10/18 09:25:39;;;;;;;17.60;7.72;;;;;;;;;;5089026;28;20107;-39
2021/10/18 09:28:12;;;;;;;11.83;6.53;;;;;;;;;;5065448;28;20108;-42
2021/10/18 09:30:39;;;;;;;14.27;6.47;;;;;;;;;;5062193;28;20111;-42
2021/10/18 09:33:12;;;;;;;13.00;7.45;;;;;;;;;;5054847;28;20028;-40
2021/10/18 09:35:40;;;;;;;11.80;6.85;;;;;;;;;;5082478;28;20028;-41
2021/10/18 09:38:09;;;;;;;17.77;6.85;;;;;;;;;;5083241;28;20028;-41
2021/10/18 09:40:36;;;;;;;14.63;7.40;;;;;;;;;;5070273;28;20027;-39
2021/10/18 09:43:07;;;;;;;11.20;7.28;;;;;;;;;;5077530;28;20390;-39
2021/10/18 09:45:35;;;;;;;13.65;7.07;;;;;;;;;;5054765;28;20040;-40
2021/10/18 10:53:30;;;;;;;12.27;6.07;;;;;;;;;;4990384;28;20041;-42
2021/10/18 10:55:56;;;;;;;10.32;6.75;;;;;;;;;;5057994;28;20036;-43
2021/10/18 10:58:51;;;;;;;12.45;6.22;;;;;;;;;;5071586;28;20048;-43
2021/10/18 11:01:34;;;;;;;8.57;5.97;;;;;;;;;;5083351;28;20031;-43
2021/10/18 11:04:00;;;;;;;9.38;6.70;;;;;;;;;;5091096;28;20024;-41
2021/10/18 11:06:44;;;;;;;9.73;6.23;;;;;;;;;;5091782;28;20016;-44
2021/10/18 11:09:37;;;;;;;9.32;6.65;;;;;;;;;;5071013;28;20061;-41
2021/10/18 11:12:02;;;;;;;8.77;6.18;;;;;;;;;;5054226;28;20036;-39
2021/10/18 11:14:28;;;;;;;9.73;6.13;;;;;;;;;;5091987;28;20101;-43
2021/10/18 11:16:53;;;;;;;8.50;6.00;;;;;;;;;;5091405;28;20024;-39
2021/10/18 11:19:20;;;;;;;9.27;6.13;;;;;;;;;;5073201;28;20486;-40
2021/10/18 11:21:45;;;;;;;;;;;;;;;;;;5091559;28;20096;-42
2021/10/18 11:24:12;;;;;;;8.00;6.27;;;;;;;;;;5083775;28;19912;-42
2021/10/18 11:26:37;;;;;;;;;;;;;;;;;;5071452;28;20036;-45
2021/10/18 11:29:04;;;;;;;10.83;6.20;;;;;;;;;;5052722;28;19959;-44
2021/10/18 11:31:31;;;;;;;10.07;6.50;;;;;;;;;;5080922;28;20035;-42
2021/10/18 11:33:56;;;;;;;;;;;;;;;;;;5090858;28;20035;-41
2021/10/18 11:36:21;;;;;;;10.93;6.40;;;;;;;;;;5090791;28;19916;-46
2021/10/18 11:38:47;;;;;;;7.53;6.20;;;;;;;;;;5075169;28;20067;-42
2021/10/18 11:41:12;;;;;;;10.67;6.43;;;;;;;;;;5076987;28;20504;-45
2021/10/18 11:43:37;;;;;;;9.30;5.97;;;;;;;;;;5090491;28;20474;-45
2021/10/18 11:46:03;;;;;;;6.50;5.83;;;;;;;;;;5089039;28;20406;-41
2021/10/18 11:48:29;;;;;;;9.50;5.97;;;;;;;;;;5068901;28;20058;-42
2021/10/18 11:50:59;;;;;;;10.32;6.07;;;;;;;;;;5074187;28;20378;-42
2021/10/18 11:53:25;;;;;;;11.20;6.82;;;;;;;;;;5084386;28;20498;-41
2021/10/18 11:55:52;;;;;;;7.40;6.03;;;;;;;;;;5085811;28;20032;-41
2021/10/18 11:58:21;;;;;;;7.07;5.47;;;;;;;;;;5056543;28;20027;-40
2021/10/18 12:00:47;;;;;;;10.20;5.50;;;;;;;;;;5031346;28;20155;-40
2021/10/18 12:03:17;;;;;;;9.70;5.83;;;;;;;;;;5068403;28;20107;-40
2021/10/18 12:05:44;;;;;;;7.82;6.00;;;;;;;;;;5054235;28;20024;-40
2021/10/18 12:08:09;;;;;;;;;;;;;;;;;;5036387;28;20028;-42
2021/10/18 12:10:35;;;;;;;9.50;5.57;;;;;;;;;;5039055;28;19912;-40
2021/10/18 12:13:04;;;;;;;7.40;5.45;;;;;;;;;;5060453;28;20024;-40
2021/10/18 12:15:30;;;;;;;7.90;5.43;;;;;;;;;;5087294;28;20375;-41
2021/10/18 12:17:55;;;;;;;8.47;5.53;;;;;;;;;;5079539;28;20099;-41
2021/10/18 12:20:21;;;;;;;9.97;5.83;;;;;;;;;;5059928;28;20139;-41
2021/10/18 12:22:59;;;;;;;8.70;5.83;;;;;;;;;;5062607;28;20029;-41
2021/10/18 12:25:25;;;;;;;6.07;5.40;;;;;;;;;;5068296;28;20388;-41
2021/10/18 12:27:50;;;;;;;6.43;5.73;;;;;;;;;;5074226;28;20109;-41
2021/10/18 12:30:34;;;;;;;7.47;5.20;;;;;;;;;;5055483;28;20020;-41
2021/10/18 12:33:25;;;;;;;8.60;5.15;;;;;;;;;;5076760;28;20065;-41
2021/10/18 12:35:57;;;;;;;7.13;5.63;;;;;;;;;;5083723;28;20059;-41
2021/10/18 12:38:29;;;;;;;7.93;5.90;;;;;;;;;;5075954;28;20020;-40
2021/10/18 12:41:06;;;;;;;8.82;5.82;;;;;;;;;;5043288;28;20035;-41
2021/10/18 12:43:32;;;;;;;6.75;5.95;;;;;;;;;;5067524;28;20039;-42
2021/10/18 12:45:57;;;;;;;7.90;5.70;;;;;;;;;;5069437;28;20040;-41
2021/10/18 12:48:23;;;;;;;7.77;5.20;;;;;;;;;;5065390;28;20028;-41
2021/10/18 12:50:48;;;;;;;9.33;4.90;;;;;;;;;;5081994;28;20508;-41
2021/10/18 12:53:26;;;;;;;6.40;5.20;;;;;;;;;;5089754;28;20027;-40
2021/10/18 12:55:51;;;;;;;5.88;5.18;;;;;;;;;;5075480;28;20495;-41
2021/10/18 12:58:18;;;;;;;6.87;5.43;;;;;;;;;;5094329;28;20162;-40
2021/10/18 13:00:43;;;;;;;7.38;5.63;;;;;;;;;;5071013;28;20840;-40
2021/10/18 13:03:09;;;;;;;6.37;5.43;;;;;;;;;;5088907;28;20028;-41
2021/10/18 13:05:37;;;;;;;7.97;5.70;;;;;;;;;;5092042;28;20120;-40
2021/10/18 13:08:02;;;;;;;5.82;5.22;;;;;;;;;;5086220;28;20032;-40
2021/10/18 13:10:32;;;;;;;7.37;5.50;;;;;;;;;;5068198;28;20020;-42
2021/10/18 13:12:58;;;;;;;7.32;5.63;;;;;;;;;;5088721;28;20051;-41
2021/10/18 13:15:23;;;;;;;5.88;5.28;;;;;;;;;;5092936;28;20085;-41
2021/10/18 13:17:49;;;;;;;6.67;5.10;;;;;;;;;;5075117;28;20028;-41
2021/10/18 13:20:16;;;;;;;7.10;5.73;;;;;;;;;;5091492;28;20396;-42
2021/10/18 13:22:43;;;;;;;6.95;5.20;;;;;;;;;;5093386;28;20118;-43
2021/10/18 13:25:09;;;;;;;7.68;5.85;;;;;;;;;;5076578;28;20017;-41
2021/10/18 13:27:36;;;;;;;6.72;5.63;;;;;;;;;;5073385;28;20032;-41
2021/10/18 13:30:02;;;;;;;7.30;5.65;;;;;;;;;;5082281;28;20476;-41
2021/10/18 13:32:27;;;;;;;8.15;5.57;;;;;;;;;;5063656;28;20021;-41
2021/10/18 13:34:52;;;;;;;6.33;5.03;;;;;;;;;;5081211;28;20036;-43
2021/10/18 13:37:18;;;;;;;8.03;5.20;;;;;;;;;;5093350;28;20039;-42
2021/10/18 13:39:43;;;;;;;5.73;5.13;;;;;;;;;;5092904;28;20079;-41
2021/10/18 13:42:09;;;;;;;6.40;5.00;;;;;;;;;;5088972;28;20028;-42
2021/10/18 13:44:35;;;;;;;6.27;4.97;;;;;;;;;;5088373;28;20024;-41
2021/10/18 13:47:01;;;;;;;6.53;5.18;;;;;;;;;;5074954;28;20296;-40
2021/10/18 13:49:26;;;;;;;5.87;5.07;;;;;;;;;;5091223;28;20394;-40
2021/10/18 13:51:52;;;;;;;7.43;5.23;;;;;;;;;;5055352;28;20025;-41
2021/10/18 13:54:17;;;;;;;5.33;4.80;;;;;;;;;;5065302;28;20431;-41
2021/10/18 13:56:43;;;;;;;5.70;5.10;;;;;;;;;;5084892;28;20504;-40
2021/10/18 13:59:08;;;;;;;6.43;4.60;;;;;;;;;;5092242;28;20088;-40
2021/10/18 14:01:34;;;;;;;7.57;4.77;;;;;;;;;;5092776;28;20106;-41
2021/10/18 14:03:59;;;;;;;6.40;4.83;;;;;;;;;;5089094;28;20471;-41
2021/10/18 14:06:25;;;;;;;7.40;5.53;;;;;;;;;;5067684;28;20025;-42
2021/10/18 14:08:50;;;;;;;6.93;4.77;;;;;;;;;;5066113;28;20032;-44
2021/10/18 14:11:18;;;;;;;6.43;4.73;;;;;;;;;;5072112;28;20032;-41
2021/10/18 14:13:43;;;;;;;5.72;4.93;;;;;;;;;;5092372;28;20024;-40
2021/10/18 14:16:08;;;;;;;5.63;4.83;;;;;;;;;;5084280;28;20106;-43
2021/10/18 14:18:34;;;;;;;6.00;4.80;;;;;;;;;;5086894;28;20036;-41
2021/10/18 14:20:59;;;;;;;7.27;5.30;;;;;;;;;;5092452;28;20023;-40
2021/10/18 14:23:24;;;;;;;6.10;4.80;;;;;;;;;;5092462;28;20126;-42
2021/10/18 14:25:50;;;;;;;5.40;4.90;;;;;;;;;;5091909;28;20149;-41
2021/10/18 14:28:15;;;;;;;7.53;4.97;;;;;;;;;;5079144;28;20115;-41
2021/10/18 14:30:41;;;;;;;7.93;5.00;;;;;;;;;;5091603;28;20031;-41
2021/10/18 14:33:07;;;;;;;8.10;5.43;;;;;;;;;;5092001;28;20120;-43
2021/10/18 14:35:33;;;;;;;7.93;4.57;;;;;;;;;;5089345;28;20502;-43
2021/10/18 14:37:58;;;;;;;5.47;4.50;;;;;;;;;;5089444;28;20456;-41
2021/10/18 14:40:23;;;;;;;6.77;4.60;;;;;;;;;;5091618;28;20052;-42
2021/10/18 14:42:49;;;;;;;5.13;4.60;;;;;;;;;;5091897;28;20024;-43
2021/10/18 14:45:14;;;;;;;5.27;4.77;;;;;;;;;;5091861;28;20052;-42
2021/10/18 14:47:39;;;;;;;6.77;5.07;;;;;;;;;;5092355;28;20031;-40
2021/10/18 14:50:06;;;;;;;5.80;4.70;;;;;;;;;;5073637;28;20510;-40
2021/10/18 14:52:32;;;;;;;;;;;;;;;;;;5090118;28;20051;-40
2021/10/18 14:54:57;;;;;;;5.23;4.73;;;;;;;;;;5091944;28;20405;-40
2021/10/18 14:57:24;;;;;;;5.10;4.60;;;;;;;;;;5092997;28;20044;-40
2021/10/18 14:59:51;;;;;;;5.70;5.10;;;;;;;;;;5085286;28;20028;-41
2021/10/18 15:02:16;;;;;;;7.47;4.97;;;;;;;;;;5086314;28;20051;-41
2021/10/18 15:04:42;;;;;;;5.27;4.77;;;;;;;;;;5071545;28;20338;-40
2021/10/18 15:07:08;;;;;;;6.23;5.00;;;;;;;;;;5074503;28;20032;-40
2021/10/18 15:09:33;;;;;;;6.07;4.70;;;;;;;;;;5072773;28;20116;-41
2021/10/18 15:11:58;;;;;;;6.67;5.37;;;;;;;;;;5089106;28;20020;-40
2021/10/18 15:14:24;;;;;;;5.57;4.80;;;;;;;;;;5091150;28;20028;-41
2021/10/18 15:16:49;;;;;;;5.73;5.13;;;;;;;;;;5091514;28;20028;-41
2021/10/18 15:19:15;;;;;;;6.10;5.10;;;;;;;;;;5091272;28;20020;-40
2021/10/18 15:21:42;;;;;;;5.20;4.73;;;;;;;;;;5079622;28;20047;-41
2021/10/18 15:24:07;;;;;;;6.03;5.35;;;;;;;;;;5086272;28;20020;-42
2021/10/18 15:26:33;;;;;;;5.07;4.50;;;;;;;;;;5091180;28;20394;-41
2021/10/18 15:28:59;;;;;;;4.97;4.57;;;;;;;;;;5072577;28;20506;-40
2021/10/18 15:31:25;;;;;;;6.57;4.65;;;;;;;;;;5091246;28;20402;-40
2021/10/18 15:33:50;;;;;;;6.30;4.60;;;;;;;;;;5076288;28;20027;-41
2021/10/18 15:36:16;;;;;;;6.07;5.07;;;;;;;;;;5049363;28;20047;-40
2021/10/18 15:38:41;;;;;;;5.70;4.90;;;;;;;;;;5061256;28;20095;-40
2021/10/18 15:41:07;;;;;;;5.43;4.93;;;;;;;;;;5070082;28;20024;-40
2021/10/18 15:43:32;;;;;;;4.90;4.40;;;;;;;;;;5071387;28;20412;-39
2021/10/18 15:45:58;;;;;;;4.57;4.17;;;;;;;;;;5072656;28;20774;-41
2021/10/18 15:48:24;;;;;;;5.22;4.72;;;;;;;;;;5068898;28;20069;-40